sensor_id;sensor_type;location;lat;lon;timestamp;temperature;humidity
20866;DHT22;10593;48.398;10.698;2023-02-03T00:01:32;7.40;60.10
20866;DHT22;10593;48.398;10.698;2023-02-03T00:03:58;7.40;59.60
20866;DHT22;10593;48.398;10.698;2023-02-03T00:06:23;7.40;59.50
20866;DHT22;10593;48.398;10.698;2023-02-03T00:08:52;7.40;59.50
20866;DHT22;10593;48.398;10.698;2023-02-03T00:11:20;7.40;59.50
20866;DHT22;10593;48.398;10.698;2023-02-03T00:13:46;7.40;59.50
20866;DHT22;10593;48.398;10.698;2023-02-03T00:16:12;7.40;59.50
20866;DHT22;10593;48.398;10.698;2023-02-03T00:18:37;7.40;59.50
20866;DHT22;10593;48.398;10.698;2023-02-03T00:21:04;7.40;59.50
20866;DHT22;10593;48.398;10.698;2023-02-03T00:23:30;7.40;59.50
20866;DHT22;10593;48.398;10.698;2023-02-03T00:26:09;7.40;59.40
20866;DHT22;10593;48.398;10.698;2023-02-03T00:28:37;7.40;59.40
20866;DHT22;10593;48.398;10.698;2023-02-03T00:31:03;7.40;59.40
20866;DHT22;10593;48.398;10.698;2023-02-03T00:33:28;7.40;60.00
20866;DHT22;10593;48.398;10.698;2023-02-03T00:35:54;7.40;59.40
20866;DHT22;10593;48.398;10.698;2023-02-03T00:38:20;7.40;59.40
20866;DHT22;10593;48.398;10.698;2023-02-03T00:40:52;7.40;59.40
20866;DHT22;10593;48.398;10.698;2023-02-03T00:43:19;7.40;59.40
20866;DHT22;10593;48.398;10.698;2023-02-03T00:45:46;7.40;59.40
20866;DHT22;10593;48.398;10.698;2023-02-03T00:48:12;7.40;59.40
20866;DHT22;10593;48.398;10.698;2023-02-03T00:50:38;7.40;59.30
20866;DHT22;10593;48.398;10.698;2023-02-03T00:53:04;7.40;59.40
20866;DHT22;10593;48.398;10.698;2023-02-03T00:55:30;7.40;59.40
20866;DHT22;10593;48.398;10.698;2023-02-03T00:57:56;7.40;59.40
20866;DHT22;10593;48.398;10.698;2023-02-03T01:00:22;7.40;59.40
20866;DHT22;10593;48.398;10.698;2023-02-03T01:02:48;7.40;59.30
20866;DHT22;10593;48.398;10.698;2023-02-03T01:05:14;7.40;59.30
20866;DHT22;10593;48.398;10.698;2023-02-03T01:07:39;7.40;59.30
20866;DHT22;10593;48.398;10.698;2023-02-03T01:10:05;7.40;59.30
20866;DHT22;10593;48.398;10.698;2023-02-03T01:12:31;7.40;59.30
20866;DHT22;10593;48.398;10.698;2023-02-03T01:14:59;7.40;59.30
20866;DHT22;10593;48.398;10.698;2023-02-03T01:17:24;7.40;59.30
20866;DHT22;10593;48.398;10.698;2023-02-03T01:19:52;7.40;59.20
20866;DHT22;10593;48.398;10.698;2023-02-03T01:22:18;7.40;59.20
20866;DHT22;10593;48.398;10.698;2023-02-03T01:24:44;7.40;59.30
20866;DHT22;10593;48.398;10.698;2023-02-03T01:27:10;7.40;59.30
20866;DHT22;10593;48.398;10.698;2023-02-03T01:29:36;7.40;59.30
20866;DHT22;10593;48.398;10.698;2023-02-03T01:32:01;7.40;59.30
20866;DHT22;10593;48.398;10.698;2023-02-03T01:34:27;7.40;59.30
20866;DHT22;10593;48.398;10.698;2023-02-03T01:36:53;7.40;59.30
20866;DHT22;10593;48.398;10.698;2023-02-03T01:39:18;7.40;59.30
20866;DHT22;10593;48.398;10.698;2023-02-03T01:41:44;7.40;59.30
20866;DHT22;10593;48.398;10.698;2023-02-03T01:47:32;7.40;59.40
20866;DHT22;10593;48.398;10.698;2023-02-03T01:52:57;7.40;59.30
20866;DHT22;10593;48.398;10.698;2023-02-03T01:55:32;7.40;59.30
20866;DHT22;10593;48.398;10.698;2023-02-03T01:58:10;7.40;59.30
20866;DHT22;10593;48.398;10.698;2023-02-03T02:00:40;7.40;59.30
20866;DHT22;10593;48.398;10.698;2023-02-03T02:03:08;7.40;59.30
20866;DHT22;10593;48.398;10.698;2023-02-03T02:05:57;7.40;59.30
20866;DHT22;10593;48.398;10.698;2023-02-03T02:08:27;7.40;59.30
20866;DHT22;10593;48.398;10.698;2023-02-03T02:10:54;7.40;59.20
20866;DHT22;10593;48.398;10.698;2023-02-03T02:13:21;7.40;59.20
20866;DHT22;10593;48.398;10.698;2023-02-03T02:16:06;7.40;59.20
20866;DHT22;10593;48.398;10.698;2023-02-03T02:26:09;7.40;59.20
20866;DHT22;10593;48.398;10.698;2023-02-03T02:34:39;7.40;59.20
20866;DHT22;10593;48.398;10.698;2023-02-03T02:37:52;7.40;59.20
20866;DHT22;10593;48.398;10.698;2023-02-03T02:43:46;7.40;59.20
20866;DHT22;10593;48.398;10.698;2023-02-03T02:49:05;7.40;59.20
20866;DHT22;10593;48.398;10.698;2023-02-03T02:51:37;7.30;59.10
20866;DHT22;10593;48.398;10.698;2023-02-03T02:54:07;7.30;59.10
20866;DHT22;10593;48.398;10.698;2023-02-03T02:56:39;7.40;59.20
20866;DHT22;10593;48.398;10.698;2023-02-03T02:59:08;7.30;59.10
20866;DHT22;10593;48.398;10.698;2023-02-03T03:01:34;7.40;59.20
20866;DHT22;10593;48.398;10.698;2023-02-03T03:04:04;7.40;59.20
20866;DHT22;10593;48.398;10.698;2023-02-03T03:06:43;7.40;59.70
20866;DHT22;10593;48.398;10.698;2023-02-03T03:09:20;7.40;59.20
20866;DHT22;10593;48.398;10.698;2023-02-03T03:11:52;7.40;59.10
20866;DHT22;10593;48.398;10.698;2023-02-03T03:14:25;7.40;59.20
20866;DHT22;10593;48.398;10.698;2023-02-03T03:16:59;7.40;59.10
20866;DHT22;10593;48.398;10.698;2023-02-03T03:19:42;7.40;59.20
20866;DHT22;10593;48.398;10.698;2023-02-03T03:22:15;7.40;59.10
20866;DHT22;10593;48.398;10.698;2023-02-03T03:24:47;7.40;59.10
20866;DHT22;10593;48.398;10.698;2023-02-03T03:27:24;7.40;59.10
20866;DHT22;10593;48.398;10.698;2023-02-03T03:30:01;7.40;59.10
20866;DHT22;10593;48.398;10.698;2023-02-03T03:32:31;7.40;59.00
20866;DHT22;10593;48.398;10.698;2023-02-03T03:34:58;7.40;59.10
20866;DHT22;10593;48.398;10.698;2023-02-03T03:37:37;7.40;59.00
20866;DHT22;10593;48.398;10.698;2023-02-03T03:40:22;7.40;59.10
20866;DHT22;10593;48.398;10.698;2023-02-03T03:43:04;7.40;59.00
20866;DHT22;10593;48.398;10.698;2023-02-03T03:45:55;7.40;59.00
20866;DHT22;10593;48.398;10.698;2023-02-03T03:48:28;7.40;59.00
20866;DHT22;10593;48.398;10.698;2023-02-03T03:51:03;7.40;58.90
20866;DHT22;10593;48.398;10.698;2023-02-03T03:53:35;7.40;59.00
20866;DHT22;10593;48.398;10.698;2023-02-03T03:56:05;7.40;58.90
20866;DHT22;10593;48.398;10.698;2023-02-03T03:58:41;7.40;58.90
20866;DHT22;10593;48.398;10.698;2023-02-03T04:01:11;7.40;59.00
20866;DHT22;10593;48.398;10.698;2023-02-03T04:03:43;7.40;59.00
20866;DHT22;10593;48.398;10.698;2023-02-03T04:06:12;7.40;59.00
20866;DHT22;10593;48.398;10.698;2023-02-03T04:08:38;7.40;58.90
20866;DHT22;10593;48.398;10.698;2023-02-03T04:11:04;7.40;59.00
20866;DHT22;10593;48.398;10.698;2023-02-03T04:13:31;7.40;59.00
20866;DHT22;10593;48.398;10.698;2023-02-03T04:15:57;7.40;58.90
20866;DHT22;10593;48.398;10.698;2023-02-03T04:18:22;7.40;58.90
20866;DHT22;10593;48.398;10.698;2023-02-03T04:20:48;7.40;58.90
20866;DHT22;10593;48.398;10.698;2023-02-03T04:23:14;7.40;58.90
20866;DHT22;10593;48.398;10.698;2023-02-03T04:25:39;7.40;58.90
20866;DHT22;10593;48.398;10.698;2023-02-03T04:28:05;7.40;58.90
20866;DHT22;10593;48.398;10.698;2023-02-03T04:30:31;7.40;58.90
20866;DHT22;10593;48.398;10.698;2023-02-03T04:32:57;7.40;58.90
20866;DHT22;10593;48.398;10.698;2023-02-03T04:35:22;7.40;58.90
20866;DHT22;10593;48.398;10.698;2023-02-03T04:37:48;7.40;58.80
20866;DHT22;10593;48.398;10.698;2023-02-03T04:40:14;7.40;58.80
20866;DHT22;10593;48.398;10.698;2023-02-03T04:42:40;7.40;58.80
20866;DHT22;10593;48.398;10.698;2023-02-03T04:45:07;7.40;58.80
20866;DHT22;10593;48.398;10.698;2023-02-03T04:47:34;7.40;58.80
20866;DHT22;10593;48.398;10.698;2023-02-03T04:50:00;7.40;58.80
20866;DHT22;10593;48.398;10.698;2023-02-03T04:52:26;7.40;58.80
20866;DHT22;10593;48.398;10.698;2023-02-03T04:54:52;7.40;58.80
20866;DHT22;10593;48.398;10.698;2023-02-03T04:57:18;7.40;58.80
20866;DHT22;10593;48.398;10.698;2023-02-03T04:59:43;7.40;58.70
20866;DHT22;10593;48.398;10.698;2023-02-03T05:02:09;7.40;58.70
20866;DHT22;10593;48.398;10.698;2023-02-03T05:04:35;7.40;58.70
20866;DHT22;10593;48.398;10.698;2023-02-03T05:07:00;7.40;58.70
20866;DHT22;10593;48.398;10.698;2023-02-03T05:09:26;7.40;58.70
20866;DHT22;10593;48.398;10.698;2023-02-03T05:11:53;7.40;58.70
20866;DHT22;10593;48.398;10.698;2023-02-03T05:14:19;7.40;58.70
20866;DHT22;10593;48.398;10.698;2023-02-03T05:16:45;7.40;58.70
20866;DHT22;10593;48.398;10.698;2023-02-03T05:19:11;7.40;58.70
20866;DHT22;10593;48.398;10.698;2023-02-03T05:21:37;7.40;58.70
20866;DHT22;10593;48.398;10.698;2023-02-03T05:24:03;7.40;58.60
20866;DHT22;10593;48.398;10.698;2023-02-03T05:26:32;7.40;58.60
20866;DHT22;10593;48.398;10.698;2023-02-03T05:28:59;7.40;58.60
20866;DHT22;10593;48.398;10.698;2023-02-03T05:31:25;7.40;58.60
20866;DHT22;10593;48.398;10.698;2023-02-03T05:33:51;7.40;58.60
20866;DHT22;10593;48.398;10.698;2023-02-03T05:36:16;7.40;59.10
20866;DHT22;10593;48.398;10.698;2023-02-03T05:38:42;7.40;58.50
20866;DHT22;10593;48.398;10.698;2023-02-03T05:41:09;7.40;58.50
20866;DHT22;10593;48.398;10.698;2023-02-03T05:43:55;7.40;58.50
20866;DHT22;10593;48.398;10.698;2023-02-03T05:46:20;7.40;58.50
20866;DHT22;10593;48.398;10.698;2023-02-03T05:48:46;7.50;58.50
20866;DHT22;10593;48.398;10.698;2023-02-03T05:51:12;7.40;58.40
20866;DHT22;10593;48.398;10.698;2023-02-03T05:53:37;7.40;58.40
20866;DHT22;10593;48.398;10.698;2023-02-03T05:56:03;7.40;58.40
20866;DHT22;10593;48.398;10.698;2023-02-03T05:58:29;7.40;58.40
20866;DHT22;10593;48.398;10.698;2023-02-03T06:00:55;7.40;58.30
20866;DHT22;10593;48.398;10.698;2023-02-03T06:03:20;7.40;58.40
20866;DHT22;10593;48.398;10.698;2023-02-03T06:05:46;7.40;58.30
20866;DHT22;10593;48.398;10.698;2023-02-03T06:08:11;7.40;58.40
20866;DHT22;10593;48.398;10.698;2023-02-03T06:10:37;7.40;58.30
20866;DHT22;10593;48.398;10.698;2023-02-03T06:13:15;7.40;58.30
20866;DHT22;10593;48.398;10.698;2023-02-03T06:15:41;7.40;58.30
20866;DHT22;10593;48.398;10.698;2023-02-03T06:18:07;7.40;58.30
20866;DHT22;10593;48.398;10.698;2023-02-03T06:20:34;7.40;58.30
20866;DHT22;10593;48.398;10.698;2023-02-03T06:23:00;7.40;58.30
20866;DHT22;10593;48.398;10.698;2023-02-03T06:25:25;7.40;58.20
20866;DHT22;10593;48.398;10.698;2023-02-03T06:27:51;7.40;58.20
20866;DHT22;10593;48.398;10.698;2023-02-03T06:30:17;7.40;58.20
20866;DHT22;10593;48.398;10.698;2023-02-03T06:32:44;7.40;58.30
20866;DHT22;10593;48.398;10.698;2023-02-03T06:35:10;7.40;58.20
20866;DHT22;10593;48.398;10.698;2023-02-03T06:37:36;7.40;58.20
20866;DHT22;10593;48.398;10.698;2023-02-03T06:40:03;7.50;58.30
20866;DHT22;10593;48.398;10.698;2023-02-03T06:42:29;7.40;58.20
20866;DHT22;10593;48.398;10.698;2023-02-03T06:44:55;7.40;58.20
20866;DHT22;10593;48.398;10.698;2023-02-03T06:47:21;7.40;58.20
20866;DHT22;10593;48.398;10.698;2023-02-03T06:49:47;7.40;58.20
20866;DHT22;10593;48.398;10.698;2023-02-03T06:52:12;7.40;58.20
20866;DHT22;10593;48.398;10.698;2023-02-03T06:54:40;7.40;58.20
20866;DHT22;10593;48.398;10.698;2023-02-03T06:57:05;7.40;58.20
20866;DHT22;10593;48.398;10.698;2023-02-03T06:59:31;7.40;58.80
20866;DHT22;10593;48.398;10.698;2023-02-03T07:01:57;7.40;58.20
20866;DHT22;10593;48.398;10.698;2023-02-03T07:04:22;7.40;58.20
20866;DHT22;10593;48.398;10.698;2023-02-03T07:06:48;7.40;58.20
20866;DHT22;10593;48.398;10.698;2023-02-03T07:09:14;7.40;58.20
20866;DHT22;10593;48.398;10.698;2023-02-03T07:11:40;7.40;58.20
20866;DHT22;10593;48.398;10.698;2023-02-03T07:14:06;7.40;58.20
20866;DHT22;10593;48.398;10.698;2023-02-03T07:16:31;7.40;58.10
20866;DHT22;10593;48.398;10.698;2023-02-03T07:18:58;7.40;58.10
20866;DHT22;10593;48.398;10.698;2023-02-03T07:21:24;7.40;58.10
20866;DHT22;10593;48.398;10.698;2023-02-03T07:23:50;7.40;58.10
20866;DHT22;10593;48.398;10.698;2023-02-03T07:26:16;7.40;58.10
20866;DHT22;10593;48.398;10.698;2023-02-03T07:28:43;7.40;58.10
20866;DHT22;10593;48.398;10.698;2023-02-03T07:31:09;7.50;58.10
20866;DHT22;10593;48.398;10.698;2023-02-03T07:33:36;7.40;58.10
20866;DHT22;10593;48.398;10.698;2023-02-03T07:36:03;7.50;58.20
20866;DHT22;10593;48.398;10.698;2023-02-03T07:38:28;7.50;58.20
20866;DHT22;10593;48.398;10.698;2023-02-03T07:40:55;7.50;58.20
20866;DHT22;10593;48.398;10.698;2023-02-03T07:43:21;7.50;58.10
20866;DHT22;10593;48.398;10.698;2023-02-03T07:45:47;7.50;58.10
20866;DHT22;10593;48.398;10.698;2023-02-03T07:48:13;7.50;58.10
20866;DHT22;10593;48.398;10.698;2023-02-03T07:50:39;7.50;58.70
20866;DHT22;10593;48.398;10.698;2023-02-03T07:53:05;7.50;58.70
20866;DHT22;10593;48.398;10.698;2023-02-03T07:55:33;7.50;58.00
20866;DHT22;10593;48.398;10.698;2023-02-03T07:58:01;7.50;58.00
20866;DHT22;10593;48.398;10.698;2023-02-03T08:00:27;7.50;58.00
20866;DHT22;10593;48.398;10.698;2023-02-03T08:02:53;7.50;58.00
20866;DHT22;10593;48.398;10.698;2023-02-03T08:05:19;7.60;58.10
20866;DHT22;10593;48.398;10.698;2023-02-03T08:07:45;7.60;58.00
20866;DHT22;10593;48.398;10.698;2023-02-03T08:10:12;7.60;57.90
20866;DHT22;10593;48.398;10.698;2023-02-03T08:12:42;7.60;57.90
20866;DHT22;10593;48.398;10.698;2023-02-03T08:15:09;7.60;57.90
20866;DHT22;10593;48.398;10.698;2023-02-03T08:17:35;7.60;57.90
20866;DHT22;10593;48.398;10.698;2023-02-03T08:20:04;7.60;57.90
20866;DHT22;10593;48.398;10.698;2023-02-03T08:22:31;7.60;57.90
20866;DHT22;10593;48.398;10.698;2023-02-03T08:24:56;7.60;57.90
20866;DHT22;10593;48.398;10.698;2023-02-03T08:27:22;7.60;57.90
20866;DHT22;10593;48.398;10.698;2023-02-03T08:29:48;7.60;57.90
20866;DHT22;10593;48.398;10.698;2023-02-03T08:32:18;7.70;57.90
20866;DHT22;10593;48.398;10.698;2023-02-03T08:34:46;7.70;57.90
20866;DHT22;10593;48.398;10.698;2023-02-03T08:37:14;7.70;57.90
20866;DHT22;10593;48.398;10.698;2023-02-03T08:39:41;7.70;57.80
20866;DHT22;10593;48.398;10.698;2023-02-03T08:42:07;7.70;57.80
20866;DHT22;10593;48.398;10.698;2023-02-03T08:44:33;7.70;57.80
20866;DHT22;10593;48.398;10.698;2023-02-03T08:47:00;7.70;57.70
20866;DHT22;10593;48.398;10.698;2023-02-03T08:49:28;7.70;57.70
20866;DHT22;10593;48.398;10.698;2023-02-03T08:51:55;7.80;58.20
20866;DHT22;10593;48.398;10.698;2023-02-03T08:54:22;7.80;57.70
20866;DHT22;10593;48.398;10.698;2023-02-03T08:56:49;7.80;57.70
20866;DHT22;10593;48.398;10.698;2023-02-03T08:59:15;7.80;57.70
20866;DHT22;10593;48.398;10.698;2023-02-03T09:01:42;7.80;57.70
20866;DHT22;10593;48.398;10.698;2023-02-03T09:04:13;7.80;57.60
20866;DHT22;10593;48.398;10.698;2023-02-03T09:06:44;7.80;57.60
20866;DHT22;10593;48.398;10.698;2023-02-03T09:09:12;7.90;57.60
20866;DHT22;10593;48.398;10.698;2023-02-03T09:11:40;7.90;57.60
20866;DHT22;10593;48.398;10.698;2023-02-03T09:14:06;7.90;57.50
20866;DHT22;10593;48.398;10.698;2023-02-03T09:16:32;7.90;57.50
20866;DHT22;10593;48.398;10.698;2023-02-03T09:18:58;7.90;57.50
20866;DHT22;10593;48.398;10.698;2023-02-03T09:21:24;7.90;57.50
20866;DHT22;10593;48.398;10.698;2023-02-03T09:23:50;7.90;57.40
20866;DHT22;10593;48.398;10.698;2023-02-03T09:26:16;8.00;57.50
20866;DHT22;10593;48.398;10.698;2023-02-03T09:28:42;7.90;57.30
20866;DHT22;10593;48.398;10.698;2023-02-03T09:31:13;8.00;57.30
20866;DHT22;10593;48.398;10.698;2023-02-03T09:33:42;8.00;57.30
20866;DHT22;10593;48.398;10.698;2023-02-03T09:36:09;8.00;57.30
20866;DHT22;10593;48.398;10.698;2023-02-03T09:38:35;8.00;57.20
20866;DHT22;10593;48.398;10.698;2023-02-03T09:46:41;8.10;57.20
20866;DHT22;10593;48.398;10.698;2023-02-03T09:51:55;8.10;57.20
20866;DHT22;10593;48.398;10.698;2023-02-03T09:57:24;8.10;57.20
20866;DHT22;10593;48.398;10.698;2023-02-03T09:59:53;8.10;57.20
20866;DHT22;10593;48.398;10.698;2023-02-03T10:05:24;8.20;57.30
20866;DHT22;10593;48.398;10.698;2023-02-03T10:11:26;8.20;57.10
20866;DHT22;10593;48.398;10.698;2023-02-03T10:16:50;8.20;57.20
20866;DHT22;10593;48.398;10.698;2023-02-03T10:22:26;8.30;57.10
20866;DHT22;10593;48.398;10.698;2023-02-03T10:27:32;8.30;57.20
20866;DHT22;10593;48.398;10.698;2023-02-03T10:32:42;8.30;57.20
20866;DHT22;10593;48.398;10.698;2023-02-03T10:35:11;8.30;57.40
20866;DHT22;10593;48.398;10.698;2023-02-03T10:37:44;8.30;57.40
20866;DHT22;10593;48.398;10.698;2023-02-03T10:40:15;8.40;57.50
20866;DHT22;10593;48.398;10.698;2023-02-03T10:42:46;8.30;57.40
20866;DHT22;10593;48.398;10.698;2023-02-03T10:45:36;8.30;57.40
20866;DHT22;10593;48.398;10.698;2023-02-03T10:48:03;8.40;57.40
20866;DHT22;10593;48.398;10.698;2023-02-03T10:50:31;8.40;57.40
20866;DHT22;10593;48.398;10.698;2023-02-03T10:55:44;8.40;57.40
20866;DHT22;10593;48.398;10.698;2023-02-03T10:58:27;8.40;57.40
20866;DHT22;10593;48.398;10.698;2023-02-03T11:00:57;8.40;57.40
20866;DHT22;10593;48.398;10.698;2023-02-03T11:03:31;8.40;57.40
20866;DHT22;10593;48.398;10.698;2023-02-03T11:06:14;8.50;57.50
20866;DHT22;10593;48.398;10.698;2023-02-03T11:08:44;8.50;57.50
20866;DHT22;10593;48.398;10.698;2023-02-03T11:11:14;8.50;57.60
20866;DHT22;10593;48.398;10.698;2023-02-03T11:14:11;8.50;57.80
20866;DHT22;10593;48.398;10.698;2023-02-03T11:16:41;8.50;57.80
20866;DHT22;10593;48.398;10.698;2023-02-03T11:19:19;8.50;57.70
20866;DHT22;10593;48.398;10.698;2023-02-03T11:21:50;8.50;57.80
20866;DHT22;10593;48.398;10.698;2023-02-03T11:29:30;8.50;57.50
20866;DHT22;10593;48.398;10.698;2023-02-03T11:32:24;8.60;57.60
20866;DHT22;10593;48.398;10.698;2023-02-03T11:35:03;8.60;57.60
20866;DHT22;10593;48.398;10.698;2023-02-03T11:37:56;8.60;57.60
20866;DHT22;10593;48.398;10.698;2023-02-03T11:40:25;8.60;57.60
20866;DHT22;10593;48.398;10.698;2023-02-03T11:57:16;8.70;57.50
20866;DHT22;10593;48.398;10.698;2023-02-03T12:03:14;8.80;57.40
20866;DHT22;10593;48.398;10.698;2023-02-03T12:09:01;8.80;57.20
20866;DHT22;10593;48.398;10.698;2023-02-03T12:23:27;8.80;56.90
20866;DHT22;10593;48.398;10.698;2023-02-03T12:26:23;8.80;56.90
20866;DHT22;10593;48.398;10.698;2023-02-03T12:31:39;8.80;56.90
20866;DHT22;10593;48.398;10.698;2023-02-03T12:37:04;8.90;56.80
20866;DHT22;10593;48.398;10.698;2023-02-03T12:45:00;8.90;56.80
20866;DHT22;10593;48.398;10.698;2023-02-03T12:47:50;8.90;56.80
20866;DHT22;10593;48.398;10.698;2023-02-03T12:53:16;8.90;56.70
20866;DHT22;10593;48.398;10.698;2023-02-03T12:55:50;9.00;56.50
20866;DHT22;10593;48.398;10.698;2023-02-03T12:58:27;9.00;56.50
20866;DHT22;10593;48.398;10.698;2023-02-03T13:01:02;9.00;56.40
20866;DHT22;10593;48.398;10.698;2023-02-03T13:03:48;9.00;56.40
20866;DHT22;10593;48.398;10.698;2023-02-03T13:09:54;9.00;56.30
20866;DHT22;10593;48.398;10.698;2023-02-03T13:12:34;9.10;56.10
20866;DHT22;10593;48.398;10.698;2023-02-03T13:15:29;9.10;56.20
20866;DHT22;10593;48.398;10.698;2023-02-03T13:18:13;9.10;56.00
20866;DHT22;10593;48.398;10.698;2023-02-03T13:20:51;9.10;56.10
20866;DHT22;10593;48.398;10.698;2023-02-03T13:23:18;9.10;56.10
20866;DHT22;10593;48.398;10.698;2023-02-03T13:29:21;9.10;55.80
20866;DHT22;10593;48.398;10.698;2023-02-03T13:32:20;9.10;55.80
20866;DHT22;10593;48.398;10.698;2023-02-03T13:40:39;9.20;55.80
20866;DHT22;10593;48.398;10.698;2023-02-03T13:43:25;9.20;55.70
20866;DHT22;10593;48.398;10.698;2023-02-03T13:45:55;9.20;55.70
20866;DHT22;10593;48.398;10.698;2023-02-03T13:48:24;9.20;55.70
20866;DHT22;10593;48.398;10.698;2023-02-03T13:51:24;9.20;55.60
20866;DHT22;10593;48.398;10.698;2023-02-03T13:54:01;9.20;55.50
20866;DHT22;10593;48.398;10.698;2023-02-03T13:56:31;9.20;55.60
20866;DHT22;10593;48.398;10.698;2023-02-03T13:58:59;9.20;55.50
20866;DHT22;10593;48.398;10.698;2023-02-03T14:01:36;9.20;56.00
20866;DHT22;10593;48.398;10.698;2023-02-03T14:12:17;9.20;55.30
20866;DHT22;10593;48.398;10.698;2023-02-03T14:20:01;9.20;55.00
20866;DHT22;10593;48.398;10.698;2023-02-03T14:22:30;9.30;55.30
20866;DHT22;10593;48.398;10.698;2023-02-03T14:25:03;9.30;55.20
20866;DHT22;10593;48.398;10.698;2023-02-03T14:27:31;9.20;55.00
20866;DHT22;10593;48.398;10.698;2023-02-03T14:30:11;9.20;55.20
20866;DHT22;10593;48.398;10.698;2023-02-03T14:32:48;9.20;54.80
20866;DHT22;10593;48.398;10.698;2023-02-03T14:35:18;9.20;54.80
20866;DHT22;10593;48.398;10.698;2023-02-03T14:37:52;9.20;55.50
20866;DHT22;10593;48.398;10.698;2023-02-03T14:57:07;9.30;54.90
20866;DHT22;10593;48.398;10.698;2023-02-03T14:59:44;9.30;54.90
20866;DHT22;10593;48.398;10.698;2023-02-03T15:04:47;9.30;54.90
20866;DHT22;10593;48.398;10.698;2023-02-03T15:10:22;9.30;54.90
20866;DHT22;10593;48.398;10.698;2023-02-03T15:12:53;9.30;54.90
20866;DHT22;10593;48.398;10.698;2023-02-03T15:15:39;9.30;54.90
20866;DHT22;10593;48.398;10.698;2023-02-03T15:21:02;9.30;54.70
20866;DHT22;10593;48.398;10.698;2023-02-03T15:23:35;9.30;54.90
20866;DHT22;10593;48.398;10.698;2023-02-03T15:26:13;9.30;54.90
20866;DHT22;10593;48.398;10.698;2023-02-03T15:28:40;9.30;54.80
20866;DHT22;10593;48.398;10.698;2023-02-03T15:31:19;9.30;54.80
20866;DHT22;10593;48.398;10.698;2023-02-03T15:33:51;9.30;54.60
20866;DHT22;10593;48.398;10.698;2023-02-03T15:36:23;9.30;54.60
20866;DHT22;10593;48.398;10.698;2023-02-03T15:41:54;9.30;54.60
20866;DHT22;10593;48.398;10.698;2023-02-03T15:44:41;9.30;54.60
20866;DHT22;10593;48.398;10.698;2023-02-03T15:47:25;9.30;54.50
20866;DHT22;10593;48.398;10.698;2023-02-03T15:52:52;9.30;54.60
20866;DHT22;10593;48.398;10.698;2023-02-03T15:58:17;9.30;54.60
20866;DHT22;10593;48.398;10.698;2023-02-03T16:00:49;9.30;54.80
20866;DHT22;10593;48.398;10.698;2023-02-03T16:03:39;9.30;54.80
20866;DHT22;10593;48.398;10.698;2023-02-03T16:06:29;9.30;54.70
20866;DHT22;10593;48.398;10.698;2023-02-03T16:09:03;9.30;54.70
20866;DHT22;10593;48.398;10.698;2023-02-03T16:11:32;9.30;54.90
20866;DHT22;10593;48.398;10.698;2023-02-03T16:14:02;9.30;54.90
20866;DHT22;10593;48.398;10.698;2023-02-03T16:16:32;9.30;54.90
20866;DHT22;10593;48.398;10.698;2023-02-03T16:19:03;9.30;54.90
20866;DHT22;10593;48.398;10.698;2023-02-03T16:24:42;9.30;54.90
20866;DHT22;10593;48.398;10.698;2023-02-03T16:30:16;9.30;54.90
20866;DHT22;10593;48.398;10.698;2023-02-03T16:35:52;9.30;54.90
20866;DHT22;10593;48.398;10.698;2023-02-03T16:38:49;9.30;54.90
20866;DHT22;10593;48.398;10.698;2023-02-03T16:41:34;9.30;54.90
20866;DHT22;10593;48.398;10.698;2023-02-03T16:44:20;9.30;54.90
20866;DHT22;10593;48.398;10.698;2023-02-03T16:47:28;9.30;54.90
20866;DHT22;10593;48.398;10.698;2023-02-03T16:50:19;9.20;55.00
20866;DHT22;10593;48.398;10.698;2023-02-03T16:53:10;9.20;55.10
20866;DHT22;10593;48.398;10.698;2023-02-03T16:55:38;9.30;55.30
20866;DHT22;10593;48.398;10.698;2023-02-03T16:58:04;9.30;55.40
20866;DHT22;10593;48.398;10.698;2023-02-03T17:00:30;9.20;55.90
20866;DHT22;10593;48.398;10.698;2023-02-03T17:02:55;9.20;55.50
20866;DHT22;10593;48.398;10.698;2023-02-03T17:05:21;9.20;55.50
20866;DHT22;10593;48.398;10.698;2023-02-03T17:07:47;9.20;55.60
20866;DHT22;10593;48.398;10.698;2023-02-03T17:10:13;9.20;55.60
20866;DHT22;10593;48.398;10.698;2023-02-03T17:12:39;9.20;55.60
20866;DHT22;10593;48.398;10.698;2023-02-03T17:15:06;9.20;55.70
20866;DHT22;10593;48.398;10.698;2023-02-03T17:17:32;9.20;55.70
20866;DHT22;10593;48.398;10.698;2023-02-03T17:19:58;9.20;55.70
20866;DHT22;10593;48.398;10.698;2023-02-03T17:22:25;9.20;55.80
20866;DHT22;10593;48.398;10.698;2023-02-03T17:24:51;9.20;55.80
20866;DHT22;10593;48.398;10.698;2023-02-03T17:27:17;9.20;55.80
20866;DHT22;10593;48.398;10.698;2023-02-03T17:29:43;9.20;55.80
20866;DHT22;10593;48.398;10.698;2023-02-03T17:32:09;9.20;55.80
20866;DHT22;10593;48.398;10.698;2023-02-03T17:34:39;9.20;55.80
20866;DHT22;10593;48.398;10.698;2023-02-03T17:37:05;9.20;55.80
20866;DHT22;10593;48.398;10.698;2023-02-03T17:39:31;9.20;55.80
20866;DHT22;10593;48.398;10.698;2023-02-03T17:41:57;9.20;55.80
20866;DHT22;10593;48.398;10.698;2023-02-03T17:44:22;9.20;55.80
20866;DHT22;10593;48.398;10.698;2023-02-03T17:46:48;9.20;55.90
20866;DHT22;10593;48.398;10.698;2023-02-03T17:49:14;9.20;55.90
20866;DHT22;10593;48.398;10.698;2023-02-03T17:51:39;9.20;55.90
20866;DHT22;10593;48.398;10.698;2023-02-03T17:54:05;9.20;55.90
20866;DHT22;10593;48.398;10.698;2023-02-03T17:56:32;9.10;55.90
20866;DHT22;10593;48.398;10.698;2023-02-03T17:59:01;9.10;55.90
20866;DHT22;10593;48.398;10.698;2023-02-03T18:01:28;9.20;55.90
20866;DHT22;10593;48.398;10.698;2023-02-03T18:04:02;9.20;56.00
20866;DHT22;10593;48.398;10.698;2023-02-03T18:06:30;9.10;55.90
20866;DHT22;10593;48.398;10.698;2023-02-03T18:09:08;9.10;55.90
20866;DHT22;10593;48.398;10.698;2023-02-03T18:11:35;9.10;55.90
20866;DHT22;10593;48.398;10.698;2023-02-03T18:14:02;9.10;55.90
20866;DHT22;10593;48.398;10.698;2023-02-03T18:16:32;9.10;56.00
20866;DHT22;10593;48.398;10.698;2023-02-03T18:19:01;9.10;56.00
20866;DHT22;10593;48.398;10.698;2023-02-03T18:21:29;9.10;56.00
20866;DHT22;10593;48.398;10.698;2023-02-03T18:23:59;9.10;56.00
20866;DHT22;10593;48.398;10.698;2023-02-03T18:26:30;9.10;56.00
20866;DHT22;10593;48.398;10.698;2023-02-03T18:28:59;9.10;56.00
20866;DHT22;10593;48.398;10.698;2023-02-03T18:31:25;9.10;56.10
20866;DHT22;10593;48.398;10.698;2023-02-03T18:33:51;9.10;56.10
20866;DHT22;10593;48.398;10.698;2023-02-03T18:36:18;9.10;56.10
20866;DHT22;10593;48.398;10.698;2023-02-03T18:38:45;9.10;56.10
20866;DHT22;10593;48.398;10.698;2023-02-03T18:41:18;9.10;56.10
20866;DHT22;10593;48.398;10.698;2023-02-03T18:43:45;9.10;56.20
20866;DHT22;10593;48.398;10.698;2023-02-03T18:46:16;9.10;56.20
20866;DHT22;10593;48.398;10.698;2023-02-03T18:48:44;9.10;56.20